createdAt,value
2023-01-01T00:01:51.965Z,100303.25
2023-01-01T00:04:40.450Z,100295.00
2023-01-01T00:07:30.543Z,100304.88
2023-01-01T00:10:31.044Z,100300.78
2023-01-01T00:13:19.476Z,100263.34
2023-01-01T00:16:08.980Z,100302.41
2023-01-01T00:18:57.600Z,100282.75
2023-01-01T00:21:46.447Z,100303.81
2023-01-01T00:24:36.299Z,100310.88
2023-01-01T00:27:24.784Z,100307.44
2023-01-01T00:30:13.998Z,100310.41
2023-01-01T00:33:02.453Z,100312.16
2023-01-01T00:35:50.951Z,100314.25
2023-01-01T00:38:39.447Z,100313.88
2023-01-01T00:41:29.319Z,100302.00
2023-01-01T00:44:17.811Z,100308.16
2023-01-01T00:47:06.432Z,100301.03
2023-01-01T00:49:54.976Z,100287.66
2023-01-01T00:52:43.445Z,100300.19
2023-01-01T00:55:31.874Z,100306.25
2023-01-01T00:58:21.633Z,100292.84
2023-01-01T01:01:10.288Z,100307.66
2023-01-01T01:03:58.769Z,100299.50
2023-01-01T01:06:47.235Z,100312.94
2023-01-01T01:09:35.680Z,100310.88
2023-01-01T01:12:24.077Z,100313.44
2023-01-01T01:15:14.193Z,100309.34
2023-01-01T01:18:02.637Z,100281.41
2023-01-01T01:20:52.609Z,100313.28
2023-01-01T01:23:41.020Z,100320.94
2023-01-01T01:26:31.209Z,100325.97
2023-01-01T01:29:19.684Z,100327.69
2023-01-01T01:32:09.637Z,100327.50
2023-01-01T01:34:58.074Z,100347.00
2023-01-01T01:37:46.985Z,100351.22
2023-01-01T01:40:35.436Z,100344.00
2023-01-01T01:43:45.445Z,100364.06
2023-01-01T01:46:36.207Z,100256.56
2023-01-01T01:49:29.683Z,100364.06
2023-01-01T01:52:18.191Z,100368.38
2023-01-01T01:55:08.499Z,100362.16
2023-01-01T01:57:57.055Z,100356.75
2023-01-01T02:00:45.537Z,100348.91
2023-01-01T02:03:39.699Z,100310.22
2023-01-01T02:06:30.936Z,100361.50
2023-01-01T02:09:19.484Z,100362.94
2023-01-01T02:12:07.943Z,100363.72
2023-01-01T02:14:56.673Z,100326.25
2023-01-01T02:17:53.160Z,100357.66
2023-01-01T02:20:46.285Z,100345.44
2023-01-01T02:23:55.397Z,100337.22
2023-01-01T02:26:55.893Z,100329.97
2023-01-01T02:29:47.837Z,100273.66
2023-01-01T02:32:39.809Z,100327.50
2023-01-01T02:35:38.419Z,100312.84
2023-01-01T02:38:29.940Z,100323.56
2023-01-01T02:41:23.113Z,100326.22
2023-01-01T02:44:12.406Z,100320.88
2023-01-01T02:47:09.824Z,100325.25
2023-01-01T02:50:02.966Z,100342.81
2023-01-01T02:53:03.675Z,100334.00
2023-01-01T02:55:58.300Z,100337.59
2023-01-01T02:59:05.933Z,100280.72
2023-01-01T03:01:58.620Z,100350.50
2023-01-01T03:04:57.846Z,100337.53
2023-01-01T03:07:54.865Z,100336.25
2023-01-01T03:10:47.863Z,100343.44
2023-01-01T03:13:44.554Z,100323.06
2023-01-01T03:16:36.438Z,100314.41
2023-01-01T03:19:26.478Z,100337.09
2023-01-01T03:22:17.510Z,100340.25
2023-01-01T03:25:09.898Z,100338.94
2023-01-01T03:28:01.205Z,100346.34
2023-01-01T03:30:50.770Z,100347.03
2023-01-01T03:33:41.501Z,100347.31
2023-01-01T03:36:31.656Z,100352.06
2023-01-01T03:39:24.472Z,100357.59
2023-01-01T03:42:18.157Z,100350.28
2023-01-01T03:45:09.658Z,100349.66
2023-01-01T03:47:58.389Z,100354.75
2023-01-01T03:50:54.078Z,100356.38
2023-01-01T03:53:44.058Z,100351.66
2023-01-01T03:56:36.791Z,100357.34
2023-01-01T03:59:31.055Z,100353.44
2023-01-01T04:02:23.220Z,100351.72
2023-01-01T04:05:11.879Z,100348.34
2023-01-01T04:08:02.492Z,100343.16
2023-01-01T04:10:52.857Z,100357.25
2023-01-01T04:13:48.454Z,100219.97
2023-01-01T04:16:37.045Z,100374.16
2023-01-01T04:19:25.825Z,100343.13
2023-01-01T04:22:14.266Z,100371.34
2023-01-01T04:25:03.081Z,100355.50
2023-01-01T04:27:51.649Z,100360.59
2023-01-01T04:33:28.931Z,100370.78
2023-01-01T04:36:17.412Z,100372.16
2023-01-01T04:39:06.226Z,100373.94
2023-01-01T04:41:54.779Z,100376.41
2023-01-01T04:44:43.258Z,100377.13
2023-01-01T04:47:33.121Z,100369.88
2023-01-01T04:50:21.613Z,100385.66
2023-01-01T04:53:10.100Z,100384.22
2023-01-01T04:56:04.761Z,100376.19
2023-01-01T04:58:53.930Z,100380.88
2023-01-01T05:01:42.572Z,100379.50
2023-01-01T05:04:32.486Z,100379.91
2023-01-01T05:07:21.006Z,100372.91
2023-01-01T05:10:09.812Z,100391.72
2023-01-01T05:12:58.296Z,100400.78
2023-01-01T05:15:46.745Z,100393.28
2023-01-01T05:18:35.663Z,100401.41
2023-01-01T05:21:26.917Z,100401.69
2023-01-01T05:24:15.837Z,100411.44
2023-01-01T05:27:04.492Z,100396.75
2023-01-01T05:29:52.932Z,100406.72
2023-01-01T05:32:41.401Z,100408.53
2023-01-01T05:35:29.874Z,100415.19
2023-01-01T05:38:19.733Z,100411.81
2023-01-01T05:41:08.824Z,100362.56
2023-01-01T05:43:57.443Z,100407.19
2023-01-01T05:46:46.084Z,100418.34
2023-01-01T05:49:36.442Z,100405.44
2023-01-01T05:52:26.918Z,100417.91
2023-01-01T05:55:17.084Z,100421.00
2023-01-01T05:58:05.518Z,100413.78
2023-01-01T06:00:54.052Z,100430.84
2023-01-01T06:03:42.849Z,100432.09
2023-01-01T06:06:33.736Z,100423.94
2023-01-01T06:09:22.208Z,100417.63
2023-01-01T06:12:12.027Z,100417.91
2023-01-01T06:15:00.510Z,100424.53
2023-01-01T06:17:48.974Z,100415.69
2023-01-01T06:20:37.389Z,100347.38
2023-01-01T06:23:25.815Z,100431.13
2023-01-01T06:26:15.631Z,100434.31
2023-01-01T06:29:05.494Z,100431.75
2023-01-01T06:31:53.982Z,100433.81
2023-01-01T06:34:42.383Z,100433.06
2023-01-01T06:37:30.887Z,100429.38
2023-01-01T06:40:19.396Z,100418.50
2023-01-01T06:43:07.794Z,100436.34
2023-01-01T06:46:05.787Z,100442.22
2023-01-01T06:48:56.186Z,100445.63
2023-01-01T06:51:45.040Z,100448.53
2023-01-01T06:54:33.509Z,100452.25
2023-01-01T06:57:22.008Z,100450.88
2023-01-01T07:00:11.452Z,100392.78
2023-01-01T07:03:01.413Z,100453.75
2023-01-01T07:05:50.063Z,100453.84
2023-01-01T07:08:38.596Z,100461.13
2023-01-01T07:11:27.404Z,100465.03
2023-01-01T07:14:15.824Z,100466.31
2023-01-01T07:17:04.293Z,100470.09
2023-01-01T07:19:54.165Z,100481.88
2023-01-01T07:22:42.644Z,100481.09
2023-01-01T07:25:31.148Z,100488.16
2023-01-01T07:28:20.035Z,100488.59
2023-01-01T07:31:08.566Z,100492.94
2023-01-01T07:33:57.167Z,100499.16
2023-01-01T07:36:47.020Z,100502.66
2023-01-01T07:39:35.565Z,100498.88
2023-01-01T07:42:23.978Z,100522.72
2023-01-01T07:45:12.976Z,100515.69
2023-01-01T07:48:01.904Z,100524.78
2023-01-01T07:50:50.371Z,100531.22
2023-01-01T07:53:40.236Z,100540.53
2023-01-01T07:56:28.786Z,100550.81
2023-01-01T07:59:20.512Z,100551.94
2023-01-01T08:02:11.917Z,100550.88
2023-01-01T08:05:00.462Z,100553.00
2023-01-01T08:07:49.615Z,100552.56
2023-01-01T08:10:39.629Z,100556.69
2023-01-01T08:13:28.121Z,100560.13
2023-01-01T08:16:16.680Z,100567.34
2023-01-01T08:19:05.201Z,100562.94
2023-01-01T08:21:53.630Z,100566.72
2023-01-01T08:24:42.126Z,100574.84
2023-01-01T08:27:31.878Z,100576.28
2023-01-01T08:30:20.332Z,100577.31
2023-01-01T08:33:08.846Z,100584.84
2023-01-01T08:35:57.423Z,100563.22
2023-01-01T08:38:45.938Z,100578.88
2023-01-01T08:41:34.445Z,100580.75
2023-01-01T08:44:24.584Z,100581.03
2023-01-01T08:47:18.806Z,100582.81
2023-01-01T08:50:08.421Z,100586.06
2023-01-01T08:52:57.018Z,100578.25
2023-01-01T08:55:45.502Z,100583.38
2023-01-01T08:58:34.496Z,100578.19
2023-01-01T09:01:27.828Z,100586.94
2023-01-01T09:04:17.182Z,100590.81
2023-01-01T09:07:05.772Z,100583.50
2023-01-01T09:09:54.191Z,100581.28
2023-01-01T09:12:42.655Z,100541.09
2023-01-01T09:15:31.081Z,100588.94
2023-01-01T09:18:21.044Z,100598.13
2023-01-01T09:21:09.531Z,100599.41
2023-01-01T09:23:58.005Z,100603.66
2023-01-01T09:26:46.850Z,100609.56
2023-01-01T09:29:35.391Z,100594.47
2023-01-01T09:32:24.123Z,100606.03
2023-01-01T09:35:13.965Z,100602.72
2023-01-01T09:38:02.439Z,100610.72
2023-01-01T09:40:59.008Z,100614.25
2023-01-01T09:43:53.526Z,100597.56
2023-01-01T09:46:42.008Z,100625.97
2023-01-01T09:49:33.915Z,100627.03
2023-01-01T09:52:26.416Z,100600.53
2023-01-01T09:55:20.090Z,100637.53
2023-01-01T09:58:11.129Z,100639.28
2023-01-01T10:01:02.851Z,100633.38
2023-01-01T10:03:55.856Z,100634.53
2023-01-01T10:06:50.356Z,100633.22
2023-01-01T10:09:46.868Z,100638.66
2023-01-01T10:12:45.772Z,100640.66
2023-01-01T10:15:35.714Z,100648.28
2023-01-01T10:18:27.893Z,100637.44
2023-01-01T10:21:18.680Z,100649.97
2023-01-01T10:24:17.124Z,100644.22
2023-01-01T10:27:07.382Z,100627.59
2023-01-01T10:30:01.450Z,100624.03
2023-01-01T10:32:54.073Z,100622.88
2023-01-01T10:35:45.550Z,100626.28
2023-01-01T10:38:35.897Z,100614.72
2023-01-01T10:41:24.390Z,100611.03
2023-01-01T10:44:14.770Z,100607.84
2023-01-01T10:47:07.703Z,100612.56
2023-01-01T10:49:58.182Z,100512.19
2023-01-01T10:52:57.314Z,100605.44
2023-01-01T10:55:50.077Z,100606.13
2023-01-01T10:58:41.344Z,100595.63
2023-01-01T11:01:32.735Z,100595.25
2023-01-01T11:04:22.433Z,100588.69
2023-01-01T11:07:18.784Z,100584.56
2023-01-01T11:10:08.418Z,100575.81
2023-01-01T11:13:05.644Z,100575.59
2023-01-01T11:15:54.878Z,100578.88
2023-01-01T11:18:44.723Z,100574.03
2023-01-01T11:21:33.597Z,100564.50
2023-01-01T11:24:25.122Z,100569.94
2023-01-01T11:27:17.592Z,100560.50
2023-01-01T11:30:29.461Z,100558.84
2023-01-01T11:33:18.732Z,100562.66
2023-01-01T11:36:09.504Z,100533.41
2023-01-01T11:39:13.542Z,100547.06
2023-01-01T11:42:02.097Z,100533.06
2023-01-01T11:44:53.220Z,100537.41
2023-01-01T11:47:43.433Z,100527.41
2023-01-01T11:50:34.609Z,100530.88
2023-01-01T11:53:31.901Z,100526.63
2023-01-01T11:56:22.027Z,100520.25
2023-01-01T11:59:16.217Z,100525.75
2023-01-01T12:02:05.634Z,100519.22
2023-01-01T12:04:58.471Z,100516.09
2023-01-01T12:07:47.387Z,100511.56
2023-01-01T12:10:46.045Z,100510.56
2023-01-01T12:13:38.832Z,100515.31
2023-01-01T12:16:37.995Z,100513.56
2023-01-01T12:19:29.556Z,100506.38
2023-01-01T12:22:20.051Z,100516.16
2023-01-01T12:25:13.375Z,100493.66
2023-01-01T12:28:09.291Z,100517.72
2023-01-01T12:31:01.957Z,100515.00
2023-01-01T12:34:03.072Z,100504.88
2023-01-01T12:36:57.382Z,100501.75
2023-01-01T12:40:19.670Z,100490.97
2023-01-01T12:43:18.630Z,100430.25
2023-01-01T12:46:34.118Z,100487.53
2023-01-01T12:49:39.582Z,100479.81
2023-01-01T12:52:39.098Z,100476.84
2023-01-01T12:55:49.791Z,100474.28
2023-01-01T12:58:42.062Z,100468.13
2023-01-01T13:01:34.291Z,100469.44
2023-01-01T13:04:23.780Z,100476.59
2023-01-01T13:07:14.124Z,100465.22
2023-01-01T13:10:10.167Z,100371.06
2023-01-01T13:12:58.646Z,100462.34
2023-01-01T13:15:53.735Z,100440.47
2023-01-01T13:18:42.309Z,100452.72
2023-01-01T13:21:32.490Z,100449.19
2023-01-01T13:24:22.848Z,100449.41
2023-01-01T13:27:11.915Z,100445.16
2023-01-01T13:30:00.415Z,100453.06
2023-01-01T13:33:25.020Z,100444.97
2023-01-01T13:36:32.686Z,100443.00
2023-01-01T13:39:54.767Z,100449.50
2023-01-01T13:42:51.785Z,100454.78
2023-01-01T13:46:10.916Z,100455.53
2023-01-01T13:49:07.918Z,100441.47
2023-01-01T13:52:20.380Z,100441.38
2023-01-01T13:55:43.445Z,100452.00
2023-01-01T13:59:05.929Z,100453.56
2023-01-01T14:02:10.732Z,100445.16
2023-01-01T14:05:05.884Z,100427.44
2023-01-01T14:07:56.072Z,100421.75
2023-01-01T14:10:51.126Z,100450.38
2023-01-01T14:13:41.625Z,100459.59
2023-01-01T14:16:30.405Z,100455.97
2023-01-01T14:19:19.055Z,100459.31
2023-01-01T14:22:09.735Z,100449.34
2023-01-01T14:24:58.266Z,100459.38
2023-01-01T14:27:46.756Z,100465.28
2023-01-01T14:30:35.493Z,100460.59
2023-01-01T14:33:25.700Z,100448.56
2023-01-01T14:36:19.477Z,100445.13
2023-01-01T14:39:27.919Z,100449.06
2023-01-01T14:42:18.190Z,100441.28
2023-01-01T14:45:07.786Z,100427.91
2023-01-01T14:47:57.082Z,100427.53
2023-01-01T14:50:47.985Z,100427.22
2023-01-01T14:53:36.566Z,100427.47
2023-01-01T14:56:28.411Z,100433.56
2023-01-01T14:59:22.106Z,100446.69
2023-01-01T15:02:19.473Z,100443.41
2023-01-01T15:05:34.892Z,100443.91
2023-01-01T15:08:27.745Z,100389.53
2023-01-01T15:11:17.062Z,100438.03
2023-01-01T15:14:07.064Z,100437.34
2023-01-01T15:17:01.810Z,100441.44
2023-01-01T15:20:02.166Z,100449.16
2023-01-01T15:22:56.508Z,100441.28
2023-01-01T15:25:45.141Z,100442.81
2023-01-01T15:28:33.673Z,100431.13
2023-01-01T15:31:23.771Z,100439.94
2023-01-01T15:34:24.738Z,100436.97
2023-01-01T15:37:17.608Z,100433.41
2023-01-01T15:40:32.839Z,100416.91
2023-01-01T15:43:23.381Z,100395.06
2023-01-01T15:46:16.227Z,100413.19
2023-01-01T15:49:25.262Z,100395.91
2023-01-01T15:52:26.995Z,100392.56
2023-01-01T15:55:17.795Z,100391.06
2023-01-01T15:58:06.446Z,100396.56
2023-01-01T16:00:57.683Z,100384.69
2023-01-01T16:03:47.209Z,100389.63
2023-01-01T16:06:43.860Z,100364.09
2023-01-01T16:09:35.862Z,100382.50
2023-01-01T16:12:24.446Z,100385.19
2023-01-01T16:15:16.246Z,100375.06
2023-01-01T16:18:04.977Z,100379.09
2023-01-01T16:20:53.523Z,100382.97
2023-01-01T16:23:43.446Z,100375.00
2023-01-01T16:26:32.110Z,100332.94
2023-01-01T16:29:20.620Z,100370.50
2023-01-01T16:32:15.435Z,100348.31
2023-01-01T16:35:11.324Z,100377.78
2023-01-01T16:38:00.363Z,100373.03
2023-01-01T16:40:52.039Z,100378.25
2023-01-01T16:43:40.473Z,100367.69
2023-01-01T16:46:29.122Z,100371.25
2023-01-01T16:49:17.692Z,100379.09
2023-01-01T16:52:06.415Z,100360.34
2023-01-01T16:54:54.907Z,100366.94
2023-01-01T16:57:44.816Z,100362.22
2023-01-01T17:00:33.285Z,100203.47
2023-01-01T17:03:21.874Z,100362.59
2023-01-01T17:06:11.368Z,100361.63
2023-01-01T17:09:00.243Z,100365.31
2023-01-01T17:11:48.720Z,100355.00
2023-01-01T17:14:38.576Z,100357.31
2023-01-01T17:17:27.119Z,100352.81
2023-01-01T17:20:15.809Z,100359.28
2023-01-01T17:23:04.371Z,100355.94
2023-01-01T17:25:52.909Z,100355.22
2023-01-01T17:28:41.446Z,100348.22
2023-01-01T17:31:31.466Z,100332.94
2023-01-01T17:34:20.098Z,100338.59
2023-01-01T17:37:08.622Z,100346.84
2023-01-01T17:39:57.281Z,100342.50
2023-01-01T17:42:45.797Z,100344.56
2023-01-01T17:45:37.555Z,100331.78
2023-01-01T17:48:27.444Z,100333.25
2023-01-01T17:51:17.122Z,100335.78
2023-01-01T17:54:10.187Z,100334.19
2023-01-01T17:57:03.299Z,100331.28
2023-01-01T17:59:51.951Z,100322.63
2023-01-01T18:02:40.732Z,100326.16
2023-01-01T18:05:30.852Z,100326.16
2023-01-01T18:08:19.348Z,100320.34
2023-01-01T18:11:07.911Z,100304.28
2023-01-01T18:13:56.437Z,100316.69
2023-01-01T18:16:45.545Z,100318.13
2023-01-01T18:19:35.273Z,100316.03
2023-01-01T18:22:25.200Z,100315.22
2023-01-01T18:25:13.852Z,100308.19
2023-01-01T18:28:02.540Z,100323.09
2023-01-01T18:30:51.093Z,100317.09
2023-01-01T18:33:39.938Z,100317.53
2023-01-01T18:36:30.213Z,100310.06
2023-01-01T18:39:29.221Z,100306.56
2023-01-01T18:42:34.679Z,100317.09
2023-01-01T18:45:26.126Z,100310.72
2023-01-01T18:48:17.017Z,100299.13
2023-01-01T18:51:15.126Z,100298.31
2023-01-01T18:54:06.291Z,100302.84
2023-01-01T18:57:02.490Z,100297.69
2023-01-01T18:59:50.929Z,100272.88
2023-01-01T19:02:42.531Z,100286.47
2023-01-01T19:05:32.234Z,100110.75
2023-01-01T19:08:22.496Z,100305.75
2023-01-01T19:11:13.439Z,100301.41
2023-01-01T19:14:12.813Z,100288.59
2023-01-01T19:17:02.401Z,100297.09
2023-01-01T19:19:52.538Z,100285.50
2023-01-01T19:22:41.034Z,100259.84
2023-01-01T19:25:39.665Z,100265.22
2023-01-01T19:28:33.636Z,100276.38
2023-01-01T19:31:24.940Z,100272.25
2023-01-01T19:34:13.740Z,100267.91
2023-01-01T19:37:02.680Z,100201.53
2023-01-01T19:39:51.899Z,100274.28
2023-01-01T19:42:40.403Z,100269.97
2023-01-01T19:45:28.916Z,100275.53
2023-01-01T19:48:19.251Z,100246.75
2023-01-01T19:51:07.974Z,100263.28
2023-01-01T19:53:58.466Z,100256.84
2023-01-01T19:56:47.670Z,100263.66
2023-01-01T19:59:36.470Z,100254.34
2023-01-01T20:05:35.565Z,100238.59
2023-01-01T20:08:24.396Z,100240.47
2023-01-01T20:11:13.012Z,100243.75
2023-01-01T20:14:01.524Z,100244.56
2023-01-01T20:16:50.901Z,100237.06
2023-01-01T20:19:40.266Z,100251.53
2023-01-01T20:22:30.156Z,100255.47
2023-01-01T20:25:19.001Z,100257.91
2023-01-01T20:28:25.189Z,100253.53
2023-01-01T20:31:13.706Z,100258.06
2023-01-01T20:34:02.333Z,100257.41
2023-01-01T20:37:08.610Z,100252.97
2023-01-01T20:39:58.495Z,100231.69
2023-01-01T20:42:47.071Z,100245.28
2023-01-01T20:45:35.762Z,100244.88
2023-01-01T20:48:24.274Z,100202.47
2023-01-01T20:51:12.845Z,100250.22
2023-01-01T20:54:01.325Z,100255.53
2023-01-01T20:56:51.174Z,100249.38
2023-01-01T20:59:39.640Z,100256.78
2023-01-01T21:02:29.881Z,100247.53
2023-01-01T21:05:18.499Z,100242.91
2023-01-01T21:08:07.077Z,100256.16
2023-01-01T21:10:55.598Z,100258.19
2023-01-01T21:13:46.645Z,100248.44
2023-01-01T21:16:38.858Z,100272.53
2023-01-01T21:19:27.659Z,100272.09
2023-01-01T21:22:16.353Z,100274.78
2023-01-01T21:25:49.244Z,100285.56
2023-01-01T21:28:23.650Z,100266.81
2023-01-01T21:31:15.445Z,100240.34
2023-01-01T21:34:13.412Z,100284.59
2023-01-01T21:37:03.292Z,100281.28
2023-01-01T21:39:51.779Z,100280.41
2023-01-01T21:42:40.265Z,100251.34
2023-01-01T21:45:32.000Z,100287.75
2023-01-01T21:48:25.463Z,100273.03
2023-01-01T21:51:17.940Z,100275.03
2023-01-01T21:54:28.295Z,100274.38
2023-01-01T21:57:19.509Z,100273.28
2023-01-01T22:00:19.543Z,100272.50
2023-01-01T22:03:14.483Z,100279.66
2023-01-01T22:06:11.659Z,100275.53
2023-01-01T22:09:00.239Z,100283.34
2023-01-01T22:11:51.045Z,100283.47
2023-01-01T22:14:41.267Z,100279.13
2023-01-01T22:17:36.885Z,100266.44
2023-01-01T22:20:27.423Z,100227.06
2023-01-01T22:23:25.373Z,100272.50
2023-01-01T22:26:17.920Z,100277.69
2023-01-01T22:29:25.250Z,100261.94
2023-01-01T22:32:17.113Z,100257.16
2023-01-01T22:35:08.382Z,100259.09
2023-01-01T22:37:57.568Z,100259.94
2023-01-01T22:40:50.458Z,100273.06
2023-01-01T22:43:40.659Z,100267.03
2023-01-01T22:46:31.028Z,100267.13
2023-01-01T22:49:23.563Z,100254.22
2023-01-01T22:52:12.115Z,100265.03
2023-01-01T22:55:00.689Z,100254.22
2023-01-01T22:57:50.703Z,100230.34
2023-01-01T23:00:39.284Z,100250.97
2023-01-01T23:03:27.866Z,100256.91
2023-01-01T23:06:16.377Z,100259.53
2023-01-01T23:09:05.686Z,100247.94
2023-01-01T23:11:54.460Z,100260.50
2023-01-01T23:15:01.858Z,100258.91
2023-01-01T23:17:50.354Z,100258.75
2023-01-01T23:20:38.841Z,100252.63
2023-01-01T23:23:28.158Z,100244.38
2023-01-01T23:26:16.762Z,100217.03
2023-01-01T23:29:05.663Z,100240.47
2023-01-01T23:31:55.568Z,100239.53
2023-01-01T23:34:44.711Z,100237.31
2023-01-01T23:37:33.307Z,100229.28
2023-01-01T23:40:21.872Z,100236.41
2023-01-01T23:43:10.337Z,100231.38
2023-01-01T23:45:59.086Z,100237.13
2023-01-01T23:48:49.353Z,100189.84
2023-01-01T23:51:39.313Z,100242.91
2023-01-01T23:54:27.875Z,100233.22
2023-01-01T23:57:16.356Z,100238.63
